Lake Grace, Australia
Current Conditions -  °F | °C
As of 11:00 AM on Saturday 29 Nov 2014 (Local Time) from YABA Reporting Station
Broken Clouds Broken Clouds  
Wind Chill: 66°   Ceiling: 3200
Heat Index: 66°   Visibility: 6mi
Dew Point: 55°   Wind: 13mph
Humidity: 68%   Direction: 210°SSW
Pressure: 29.94"   Gusts: NA
Location:  33.1°S, 118.47°E
Report Text: YABA 290300Z 21011KT 9999 FEW023 BKN032 19/13 Q1014
Loading
Personal Weather Stations






























Interactive Weather Map New forecast layout! Learn more

10-Day Weather Forecast

Advertisements
Track Severe Weather on mobile